Terminal Aerodrome Forecast
Issued by NWS

Home | Current Version | Previous Version | Text Only | Print | Product List | Glossary Off
Versions: 1 2 3 4 5 6 7 8 9 10 11 12 13 14 15 16 17 18 19 20 21 22 23 24 25 26 27 28 29 30 31 32 33 34 35 36

000
FTUS43 KLOT 300800 AAA
TAFORD
TAF AMD
KORD 300848Z 3009/3112 20011KT P6SM FEW040 OVC080
     FM301500 22012G20KT P6SM BKN035
      TEMPO 3015/3018 4SM -TSRA BR SCT030CB BKN035
     FM310100 23006KT P6SM BKN300
     FM310800 VRB03KT 4SM BR BKN100=

USA.gov is the U.S. government's official web portal to all federal, state and local government web resources and services.